createdAt,value
2023-06-26T00:01:22.124Z,86.46
2023-06-26T00:04:25.005Z,86.18
2023-06-26T00:07:27.711Z,85.73
2023-06-26T00:10:30.563Z,85.89
2023-06-26T00:13:33.343Z,85.74
2023-06-26T00:16:36.138Z,86.01
2023-06-26T00:19:38.884Z,85.80
2023-06-26T00:22:42.360Z,86.00
2023-06-26T00:25:45.830Z,85.46
2023-06-26T00:28:48.546Z,85.60
2023-06-26T00:31:51.294Z,85.80
2023-06-26T00:34:54.533Z,85.78
2023-06-26T00:37:57.320Z,86.11
2023-06-26T00:41:00.148Z,86.71
2023-06-26T00:44:02.865Z,86.39
2023-06-26T00:47:06.193Z,86.11
2023-06-26T00:50:10.147Z,86.58
2023-06-26T00:53:13.303Z,86.63
2023-06-26T00:56:16.993Z,87.08
2023-06-26T00:59:19.817Z,86.54
2023-06-26T01:02:24.502Z,86.61
2023-06-26T01:05:29.319Z,86.80
2023-06-26T01:08:32.236Z,86.95
2023-06-26T01:11:34.937Z,87.27
2023-06-26T01:14:38.019Z,87.86
2023-06-26T01:17:41.708Z,87.45
2023-06-26T01:20:47.578Z,87.39
2023-06-26T01:24:10.652Z,87.09
2023-06-26T01:27:14.798Z,87.12
2023-06-26T01:30:19.291Z,87.29
2023-06-26T01:33:22.502Z,86.73
2023-06-26T01:36:28.564Z,87.13
2023-06-26T01:39:31.317Z,87.04
2023-06-26T01:42:35.143Z,87.60
2023-06-26T01:45:38.713Z,87.41
2023-06-26T01:49:01.835Z,87.70
2023-06-26T01:52:24.713Z,87.36
2023-06-26T01:55:50.643Z,87.35
2023-06-26T01:58:56.221Z,87.16
2023-06-26T02:01:59.068Z,87.09
2023-06-26T02:05:01.928Z,87.28
2023-06-26T02:08:05.152Z,87.19
2023-06-26T02:11:07.963Z,87.39
2023-06-26T02:14:12.203Z,87.06
2023-06-26T02:17:14.976Z,86.83
2023-06-26T02:20:17.830Z,87.03
2023-06-26T02:23:20.601Z,86.75
2023-06-26T02:26:23.601Z,86.73
2023-06-26T02:29:26.388Z,87.12
2023-06-26T02:32:29.137Z,87.01
2023-06-26T02:35:34.178Z,87.30
2023-06-26T02:38:37.521Z,87.31
2023-06-26T02:41:40.488Z,87.49
2023-06-26T02:44:43.722Z,87.21
2023-06-26T02:47:46.718Z,87.85
2023-06-26T02:50:49.568Z,87.44
2023-06-26T02:53:52.372Z,87.11
2023-06-26T02:56:55.233Z,86.85
2023-06-26T03:00:02.986Z,86.62
2023-06-26T03:03:06.976Z,87.07
2023-06-26T03:06:10.037Z,86.17
2023-06-26T03:09:12.882Z,85.98
2023-06-26T03:12:15.611Z,85.87
2023-06-26T03:15:20.523Z,85.93
2023-06-26T03:18:23.582Z,85.74
2023-06-26T03:21:26.326Z,85.09
2023-06-26T03:24:30.007Z,84.66
2023-06-26T03:27:33.926Z,85.29
2023-06-26T03:30:36.980Z,84.80
2023-06-26T03:33:39.973Z,84.79
2023-06-26T03:36:44.107Z,85.04
2023-06-26T03:39:47.153Z,84.55
2023-06-26T03:42:50.036Z,84.48
2023-06-26T03:45:53.487Z,83.67
2023-06-26T03:48:56.309Z,83.69
2023-06-26T03:51:59.056Z,82.59
2023-06-26T03:55:02.090Z,83.15
2023-06-26T03:58:05.339Z,82.98
2023-06-26T04:01:08.706Z,83.50
2023-06-26T04:04:11.486Z,83.44
2023-06-26T04:07:14.298Z,82.80
2023-06-26T04:10:17.091Z,82.49
2023-06-26T04:13:19.829Z,81.35
2023-06-26T04:16:26.416Z,77.75
2023-06-26T04:19:29.224Z,78.90
2023-06-26T04:22:31.967Z,79.67
2023-06-26T04:25:34.958Z,77.85
2023-06-26T04:28:37.877Z,76.29
2023-06-26T04:31:41.295Z,75.82
2023-06-26T04:34:47.625Z,74.43
2023-06-26T04:37:50.350Z,73.94
2023-06-26T04:40:53.053Z,73.68
2023-06-26T04:43:55.760Z,73.97
2023-06-26T04:46:58.555Z,73.26
2023-06-26T04:50:01.320Z,73.51
2023-06-26T04:53:04.164Z,74.35
2023-06-26T04:56:06.934Z,73.26
2023-06-26T04:59:14.186Z,72.90
2023-06-26T05:02:16.968Z,73.14
2023-06-26T05:05:19.728Z,73.03
2023-06-26T05:08:24.372Z,73.03
2023-06-26T05:11:27.261Z,72.89
2023-06-26T05:14:30.057Z,72.56
2023-06-26T05:17:32.793Z,73.06
2023-06-26T05:20:37.632Z,74.09
2023-06-26T05:23:40.876Z,75.18
2023-06-26T05:26:44.062Z,75.48
2023-06-26T05:29:47.061Z,74.88
2023-06-26T05:32:50.840Z,75.83
2023-06-26T05:35:54.751Z,74.76
2023-06-26T05:38:57.789Z,72.65
2023-06-26T05:42:00.903Z,69.83
2023-06-26T05:45:03.718Z,68.06
2023-06-26T05:48:06.769Z,63.81
2023-06-26T05:51:10.103Z,63.03
2023-06-26T05:54:14.455Z,62.08
2023-06-26T05:57:17.468Z,63.57
2023-06-26T06:00:20.617Z,62.05
2023-06-26T06:03:24.444Z,60.82
2023-06-26T06:06:27.436Z,61.14
2023-06-26T06:09:30.272Z,60.33
2023-06-26T06:12:33.182Z,59.24
2023-06-26T06:15:35.928Z,58.16
2023-06-26T06:18:38.646Z,58.35
2023-06-26T06:21:41.358Z,55.97
2023-06-26T06:24:45.123Z,57.74
2023-06-26T06:27:47.937Z,56.80
2023-06-26T06:30:50.965Z,57.18
2023-06-26T06:33:54.036Z,54.68
2023-06-26T06:36:56.765Z,54.57
2023-06-26T06:40:00.715Z,53.61
2023-06-26T06:43:03.526Z,54.87
2023-06-26T06:46:06.517Z,54.84
2023-06-26T06:49:10.506Z,53.96
2023-06-26T06:52:13.208Z,53.73
2023-06-26T06:55:16.017Z,53.02
2023-06-26T06:58:20.376Z,51.41
2023-06-26T07:01:23.133Z,53.80
2023-06-26T07:04:26.012Z,50.03
2023-06-26T07:07:32.080Z,50.89
2023-06-26T07:10:35.218Z,52.23
2023-06-26T07:13:38.638Z,50.78
2023-06-26T07:16:41.337Z,50.83
2023-06-26T07:19:44.112Z,50.37
2023-06-26T07:22:48.278Z,51.06
2023-06-26T07:25:51.027Z,48.79
2023-06-26T07:28:53.822Z,49.40
2023-06-26T07:31:56.832Z,46.98
2023-06-26T07:34:59.589Z,46.23
2023-06-26T07:38:02.351Z,47.21
2023-06-26T07:41:05.116Z,46.44
2023-06-26T07:44:07.846Z,46.46
2023-06-26T07:47:11.308Z,46.56
2023-06-26T07:50:17.037Z,44.84
2023-06-26T07:53:19.765Z,44.04
2023-06-26T07:56:22.570Z,43.64
2023-06-26T07:59:27.021Z,43.96
2023-06-26T08:02:30.212Z,44.87
2023-06-26T08:05:33.148Z,43.07
2023-06-26T08:08:36.034Z,44.79
2023-06-26T08:11:38.740Z,44.86
2023-06-26T08:14:41.506Z,42.92
2023-06-26T08:17:44.402Z,43.78
2023-06-26T08:20:47.205Z,43.07
2023-06-26T08:23:49.924Z,42.82
2023-06-26T08:26:52.684Z,41.08
2023-06-26T08:29:55.413Z,42.74
2023-06-26T08:32:58.325Z,42.40
2023-06-26T08:36:01.136Z,42.82
2023-06-26T08:39:06.248Z,43.29
2023-06-26T08:42:09.185Z,41.11
2023-06-26T08:45:13.225Z,41.65
2023-06-26T08:48:16.426Z,41.73
2023-06-26T08:51:24.474Z,42.96
2023-06-26T08:54:39.418Z,41.92
2023-06-26T08:57:42.921Z,42.56
2023-06-26T09:00:47.064Z,42.54
2023-06-26T09:03:50.025Z,39.61
2023-06-26T09:06:53.020Z,42.21
2023-06-26T09:09:55.830Z,43.14
2023-06-26T09:12:59.848Z,43.48
2023-06-26T09:16:10.423Z,43.16
2023-06-26T09:19:13.754Z,44.62
2023-06-26T09:22:16.836Z,38.94
2023-06-26T09:25:20.340Z,38.30
2023-06-26T09:28:23.708Z,38.54
2023-06-26T09:31:40.294Z,39.74
2023-06-26T09:34:47.725Z,39.94
2023-06-26T09:37:50.920Z,40.67
2023-06-26T09:40:53.774Z,40.47
2023-06-26T09:44:02.000Z,38.36
2023-06-26T09:47:05.419Z,38.10
2023-06-26T09:50:22.699Z,37.09
2023-06-26T09:53:26.902Z,37.31
2023-06-26T09:56:30.884Z,38.52
2023-06-26T09:59:34.616Z,40.12
2023-06-26T10:02:37.481Z,39.00
2023-06-26T10:05:41.571Z,40.57
2023-06-26T10:08:44.762Z,38.78
2023-06-26T10:12:13.528Z,39.62
2023-06-26T10:15:18.039Z,39.12
2023-06-26T10:18:24.407Z,39.73
2023-06-26T10:21:29.573Z,39.07
2023-06-26T10:24:37.193Z,39.26
2023-06-26T10:27:46.544Z,40.08
2023-06-26T10:30:52.331Z,39.81
2023-06-26T10:33:55.608Z,39.77
2023-06-26T10:37:03.035Z,39.24
2023-06-26T10:40:06.552Z,40.07
2023-06-26T10:43:10.529Z,39.57
2023-06-26T10:46:16.429Z,40.66
2023-06-26T10:49:19.658Z,39.81
2023-06-26T10:52:22.389Z,40.80
2023-06-26T10:55:29.421Z,40.99
2023-06-26T10:58:36.025Z,39.21
2023-06-26T11:01:43.604Z,38.84
2023-06-26T11:04:54.775Z,39.13
2023-06-26T11:08:09.283Z,39.18
2023-06-26T11:11:12.071Z,38.75
2023-06-26T11:14:15.076Z,39.03
2023-06-26T11:17:20.082Z,39.32
2023-06-26T11:20:23.049Z,39.00
2023-06-26T11:23:26.606Z,39.67
2023-06-26T11:26:29.359Z,40.22
2023-06-26T11:29:32.644Z,38.49
2023-06-26T11:32:36.079Z,38.34
2023-06-26T11:35:39.888Z,38.47
2023-06-26T11:38:42.625Z,39.51
2023-06-26T11:41:46.642Z,38.64
2023-06-26T11:44:49.462Z,38.03
2023-06-26T11:47:52.541Z,40.01
2023-06-26T11:50:55.846Z,39.73
2023-06-26T11:53:58.614Z,39.64
2023-06-26T11:57:02.348Z,39.52
2023-06-26T12:00:25.366Z,39.88
2023-06-26T12:03:28.467Z,41.17
2023-06-26T12:06:34.697Z,40.57
2023-06-26T12:09:43.368Z,40.00
2023-06-26T12:12:47.325Z,39.41
2023-06-26T12:15:51.621Z,36.84
2023-06-26T12:19:02.810Z,37.54
2023-06-26T12:22:08.826Z,37.18
2023-06-26T12:25:11.575Z,37.75
2023-06-26T12:28:18.859Z,38.36
2023-06-26T12:31:22.741Z,36.60
2023-06-26T12:34:34.622Z,35.18
2023-06-26T12:37:43.487Z,38.38
2023-06-26T12:40:47.344Z,38.41
2023-06-26T12:43:57.221Z,39.05
2023-06-26T12:47:02.117Z,38.06
2023-06-26T12:50:06.884Z,36.57
2023-06-26T12:53:09.643Z,36.36
2023-06-26T12:56:12.488Z,35.94
2023-06-26T12:59:15.194Z,37.25
2023-06-26T13:02:18.127Z,36.59
2023-06-26T13:05:21.013Z,36.08
2023-06-26T13:08:23.763Z,36.81
2023-06-26T13:11:27.063Z,38.26
2023-06-26T13:14:29.900Z,36.72
2023-06-26T13:17:32.664Z,35.35
2023-06-26T13:20:35.414Z,36.29
2023-06-26T13:23:38.178Z,35.28
2023-06-26T13:26:41.064Z,35.39
2023-06-26T13:29:43.789Z,34.62
2023-06-26T13:32:47.369Z,34.45
2023-06-26T13:35:50.168Z,33.08
2023-06-26T13:38:57.039Z,33.46
2023-06-26T13:42:00.105Z,35.43
2023-06-26T13:45:08.156Z,34.87
2023-06-26T13:48:18.956Z,36.28
2023-06-26T13:51:21.807Z,35.85
2023-06-26T13:54:24.605Z,34.58
2023-06-26T13:57:29.707Z,34.00
2023-06-26T14:00:34.638Z,34.12
2023-06-26T14:03:37.466Z,35.25
2023-06-26T14:06:40.293Z,33.45
2023-06-26T14:09:42.985Z,33.31
2023-06-26T14:12:45.765Z,32.97
2023-06-26T14:15:48.547Z,32.41
2023-06-26T14:18:51.232Z,32.74
2023-06-26T14:21:53.989Z,35.61
2023-06-26T14:24:56.718Z,37.78
2023-06-26T14:28:00.158Z,38.90
2023-06-26T14:31:03.022Z,35.98
2023-06-26T14:34:05.920Z,33.28
2023-06-26T14:37:08.742Z,34.11
2023-06-26T14:40:12.283Z,33.76
2023-06-26T14:43:15.597Z,34.57
2023-06-26T14:46:19.659Z,34.59
2023-06-26T14:49:22.748Z,33.97
2023-06-26T14:52:25.437Z,33.47
2023-06-26T14:55:28.226Z,32.40
2023-06-26T14:58:30.931Z,33.16
2023-06-26T15:01:33.805Z,33.96
2023-06-26T15:04:36.605Z,32.21
2023-06-26T15:07:39.470Z,32.33
2023-06-26T15:10:42.607Z,31.68
2023-06-26T15:13:47.140Z,32.35
2023-06-26T15:16:49.999Z,34.41
2023-06-26T15:19:52.737Z,35.65
2023-06-26T15:22:55.500Z,33.84
2023-06-26T15:25:58.280Z,35.08
2023-06-26T15:29:00.986Z,32.35
2023-06-26T15:32:03.837Z,33.24
2023-06-26T15:35:07.207Z,33.27
2023-06-26T15:38:09.990Z,34.87
2023-06-26T15:41:14.318Z,33.56
2023-06-26T15:44:17.093Z,33.13
2023-06-26T15:47:19.834Z,33.72
2023-06-26T15:50:23.046Z,34.35
2023-06-26T15:53:39.153Z,33.56
2023-06-26T15:56:41.982Z,33.70
2023-06-26T15:59:44.671Z,34.90
2023-06-26T16:02:47.489Z,34.32
2023-06-26T16:05:50.741Z,35.11
2023-06-26T16:08:54.116Z,36.10
2023-06-26T16:11:56.960Z,35.81
2023-06-26T16:14:59.917Z,35.07
2023-06-26T16:18:03.491Z,35.49
2023-06-26T16:21:06.490Z,35.06
2023-06-26T16:24:09.494Z,35.59
2023-06-26T16:27:14.356Z,35.40
2023-06-26T16:30:17.777Z,35.44
2023-06-26T16:33:20.787Z,34.85
2023-06-26T16:36:23.524Z,35.91
2023-06-26T16:39:26.257Z,36.38
2023-06-26T16:42:28.969Z,35.85
2023-06-26T16:45:31.840Z,36.13
2023-06-26T16:48:34.631Z,36.84
2023-06-26T16:51:37.384Z,37.25
2023-06-26T16:54:40.224Z,36.42
2023-06-26T16:57:44.345Z,37.75
2023-06-26T17:00:47.615Z,36.60
2023-06-26T17:03:50.381Z,37.02
2023-06-26T17:06:53.157Z,37.86
2023-06-26T17:09:56.527Z,38.07
2023-06-26T17:12:59.250Z,37.88
2023-06-26T17:16:02.253Z,38.79
2023-06-26T17:19:06.874Z,38.16
2023-06-26T17:22:09.789Z,39.63
2023-06-26T17:25:12.932Z,40.69
2023-06-26T17:28:15.706Z,41.05
2023-06-26T17:31:18.578Z,41.63
2023-06-26T17:34:21.298Z,42.45
2023-06-26T17:37:24.414Z,42.46
2023-06-26T17:40:27.368Z,42.54
2023-06-26T17:43:30.286Z,43.29
2023-06-26T17:46:33.055Z,43.38
2023-06-26T17:49:35.811Z,43.94
2023-06-26T17:52:38.554Z,43.81
2023-06-26T17:55:41.403Z,44.81
2023-06-26T17:58:44.143Z,44.73
2023-06-26T18:01:47.162Z,45.82
2023-06-26T18:04:50.109Z,48.25
2023-06-26T18:08:04.057Z,49.84
2023-06-26T18:11:07.443Z,50.92
2023-06-26T18:14:10.413Z,51.09
2023-06-26T18:17:15.322Z,51.17
2023-06-26T18:20:18.133Z,51.80
2023-06-26T18:23:20.929Z,52.32
2023-06-26T18:26:23.869Z,52.13
2023-06-26T18:29:26.835Z,52.92
2023-06-26T18:32:29.602Z,53.40
2023-06-26T18:35:32.417Z,53.48
2023-06-26T18:38:35.195Z,54.32
2023-06-26T18:41:37.919Z,54.80
2023-06-26T18:44:40.898Z,56.11
2023-06-26T18:47:44.489Z,56.09
2023-06-26T18:50:47.380Z,55.85
2023-06-26T18:53:50.113Z,56.66
2023-06-26T18:56:52.891Z,56.24
2023-06-26T18:59:55.660Z,56.45
2023-06-26T19:02:59.064Z,57.13
2023-06-26T19:06:01.927Z,58.94
2023-06-26T19:09:04.980Z,60.84
2023-06-26T19:12:08.373Z,61.57
2023-06-26T19:15:11.985Z,62.23
2023-06-26T19:18:14.901Z,63.01
2023-06-26T19:21:17.912Z,63.28
2023-06-26T19:24:20.824Z,64.09
2023-06-26T19:27:23.644Z,64.84
2023-06-26T19:30:26.449Z,65.00
2023-06-26T19:33:29.421Z,66.21
2023-06-26T19:36:32.179Z,66.68
2023-06-26T19:39:35.030Z,66.66
2023-06-26T19:42:37.983Z,67.12
2023-06-26T19:45:41.236Z,67.07
2023-06-26T19:48:45.070Z,67.82
2023-06-26T19:51:48.788Z,68.21
2023-06-26T19:54:51.686Z,68.93
2023-06-26T19:57:54.736Z,69.51
2023-06-26T20:00:57.422Z,70.11
2023-06-26T20:04:05.943Z,71.01
2023-06-26T20:07:09.213Z,70.87
2023-06-26T20:10:12.304Z,71.94
2023-06-26T20:13:16.575Z,72.33
2023-06-26T20:16:19.359Z,72.90
2023-06-26T20:19:22.735Z,75.40
2023-06-26T20:22:25.540Z,74.05
2023-06-26T20:25:29.307Z,74.05
2023-06-26T20:28:31.991Z,73.32
2023-06-26T20:31:34.792Z,73.53
2023-06-26T20:34:37.771Z,73.28
2023-06-26T20:37:40.551Z,73.22
2023-06-26T20:40:43.925Z,73.36
2023-06-26T20:43:46.941Z,73.20
2023-06-26T20:46:57.167Z,72.78
2023-06-26T20:50:01.665Z,73.07
2023-06-26T20:53:04.721Z,73.31
2023-06-26T20:56:07.920Z,73.41
2023-06-26T20:59:10.694Z,73.64
2023-06-26T21:02:13.434Z,73.97
2023-06-26T21:05:16.274Z,73.90
2023-06-26T21:08:19.040Z,73.80
2023-06-26T21:11:21.827Z,74.17
2023-06-26T21:14:24.579Z,73.81
2023-06-26T21:17:27.373Z,73.90
2023-06-26T21:20:30.380Z,74.20
2023-06-26T21:23:33.182Z,74.24
2023-06-26T21:26:36.040Z,74.87
2023-06-26T21:29:38.765Z,74.85
2023-06-26T21:32:41.729Z,75.95
2023-06-26T21:35:44.909Z,75.39
2023-06-26T21:38:48.006Z,75.34
2023-06-26T21:41:51.326Z,75.21
2023-06-26T21:44:54.081Z,75.47
2023-06-26T21:47:56.843Z,75.61
2023-06-26T21:50:59.573Z,76.05
2023-06-26T21:54:03.236Z,76.13
2023-06-26T21:57:06.307Z,75.86
2023-06-26T22:00:13.913Z,76.24
2023-06-26T22:03:16.880Z,75.84
2023-06-26T22:06:19.650Z,75.15
2023-06-26T22:09:22.394Z,75.21
2023-06-26T22:12:25.125Z,75.06
2023-06-26T22:15:28.648Z,75.51
2023-06-26T22:18:31.348Z,76.03
2023-06-26T22:21:35.092Z,76.17
2023-06-26T22:24:37.960Z,76.80
2023-06-26T22:27:46.326Z,76.92
2023-06-26T22:30:49.122Z,76.80
2023-06-26T22:33:51.969Z,77.04
2023-06-26T22:36:54.675Z,77.08
2023-06-26T22:39:57.394Z,77.12
2023-06-26T22:43:00.133Z,77.09
2023-06-26T22:46:02.829Z,76.79
2023-06-26T22:49:05.602Z,76.94
2023-06-26T22:52:08.538Z,76.54
2023-06-26T22:55:11.742Z,76.61
2023-06-26T22:58:14.540Z,76.60
2023-06-26T23:01:18.659Z,76.96
2023-06-26T23:04:21.879Z,77.53
2023-06-26T23:07:24.875Z,77.26
2023-06-26T23:10:27.661Z,77.53
2023-06-26T23:13:30.427Z,77.35
2023-06-26T23:16:35.993Z,76.56
2023-06-26T23:19:41.890Z,76.46
2023-06-26T23:22:44.932Z,76.63
2023-06-26T23:25:47.726Z,77.31
2023-06-26T23:28:50.674Z,77.42
2023-06-26T23:31:53.495Z,76.96
2023-06-26T23:34:57.245Z,77.23
2023-06-26T23:38:02.409Z,77.71
2023-06-26T23:41:05.683Z,77.97
2023-06-26T23:44:08.440Z,77.76
2023-06-26T23:47:11.182Z,77.60
2023-06-26T23:50:14.428Z,78.07
2023-06-26T23:53:17.239Z,77.79
2023-06-26T23:56:19.933Z,77.88
2023-06-26T23:59:22.742Z,78.48
